Thunder radar more information blitzortung!


Radar de pluja more information rain snow radar


Visita la nostra xarxa de llocs de meteo:

Template documentation
and downloads

And another site



No particular awareness of the weather is required.    There are no Weather-warnings

Pagina Historial Weather Underground text

Diari Resum Juliol 18, 2017 Unitats:  Imperial    Mètric   Tant
« Previous Dia
SegĂźent Dia »
Diari Setmana Mensual Anual Personalitzada
  Maxima: Minima: Media:
Temperatura: 92.8 °F 67.8 °F 82.9 °F
Punt de rosada: 66 °F 51.4 °F 59.2 °F
Humitat: 78 % 28 % 47 %
Wind Speed: 11.5 mph 0 mph 4.2 mph
RĂ fegues de vent: 13 mph - -
Vent:- - SSW
Pression baro: 30 in 29.9 in -
Precipitacions: 0 in    
Historical Graphs
 
 
Dades de taula per Juliol 18, 2017
Temps Temperatura Punt de rosada Pression baro Vent Wind Speed RĂ fegues de vent Humitat Rainfall Rate (Hourly)
00:00 69.6 °F 61.3 °F 30 in Calm   1 mph 75 % 0 in
00:04 74.1 °F 61.5 °F 30 in ENE 1.2 mph 1.2 mph 65 % 0 in
00:10 69.4 °F 61.2 °F 30 in North 1 mph 1 mph 75 % 0 in
00:20 69.3 °F 61.3 °F 30 in NNE 1 mph 2 mph 76 % 0 in
00:30 69.1 °F 61.2 °F 30 in NE 1 mph 2 mph 76 % 0 in
00:40 68.7 °F 60.8 °F 30 in Calm   2 mph 76 % 0 in
00:50 68.4 °F 60.4 °F 30 in Calm     76 % 0 in
01:00 68 °F 60.3 °F 30 in Calm     76 % 0 in
01:10 68 °F 60.4 °F 30 in SE 1 mph 1 mph 77 % 0 in
01:25 68 °F 60.4 °F 30 in Calm   2 mph 77 % 0 in
01:35 67.8 °F 60.3 °F 30 in ENE 1 mph   77 % 0 in
01:45 67.8 °F 60.6 °F 30 in Calm   1 mph 78 % 0 in
01:55 67.8 °F 60.6 °F 30 in Calm     78 % 0 in
02:05 67.8 °F 60.6 °F 30 in Calm     78 % 0 in
02:15 68 °F 61 °F 30 in Calm   1 mph 78 % 0 in
02:25 68.4 °F 61 °F 30 in Calm   1 mph 77 % 0 in
02:35 68.7 °F 61.2 °F 30 in South 1 mph 3 mph 77 % 0 in
02:45 69.1 °F 60.8 °F 30 in Calm   2 mph 75 % 0 in
02:55 69.8 °F 61.2 °F 30 in Calm   3 mph 74 % 0 in
03:05 70.3 °F 61.3 °F 30 in NNE 1 mph 2 mph 73 % 0 in
03:15 70.9 °F 61.3 °F 30 in NE 1 mph 3 mph 72 % 0 in
03:25 70.3 °F 60.4 °F 30 in NE 2 mph 3 mph 71 % 0 in
03:35 70.9 °F 61 °F 30 in NE 1 mph 3 mph 71 % 0 in
03:45 72.3 °F 61.5 °F 30 in NE 2 mph 3 mph 69 % 0 in
03:55 73 °F 61.9 °F 30 in ENE 2 mph 3 mph 68 % 0 in
04:05 72.9 °F 60.8 °F 30 in NE 2 mph 4 mph 66 % 0 in
04:15 74.3 °F 62.2 °F 30 in NE 2 mph 4 mph 66 % 0 in
04:25 75 °F 62.4 °F 30 in NE 1 mph 4 mph 65 % 0 in
04:35 77.4 °F 63 °F 30 in NE 1 mph 1 mph 61 % 0 in
04:45 78.8 °F 64.8 °F 30 in NNW 2 mph 3 mph 62 % 0 in
04:55 77.9 °F 63.9 °F 30 in NNE 1 mph 2 mph 62 % 0 in
05:05 77.9 °F 64.2 °F 30 in NE 3 mph 4 mph 63 % 0 in
05:15 77.9 °F 64.2 °F 30 in ENE 2 mph 3 mph 63 % 0 in
05:25 78.8 °F 64.8 °F 30 in ENE 1 mph 3 mph 62 % 0 in
05:35 80.8 °F 65.7 °F 30 in West 3 mph 3 mph 60 % 0 in
05:45 81.9 °F 65.7 °F 30 in SSW 3 mph 4 mph 58 % 0 in
10:49 82.8 °F 66 °F 30 in South 2.3 mph 2.3 mph 57 % 0 in
10:54 82.6 °F 65.3 °F 30 in South 3.5 mph 3.8 mph 56 % 0 in
10:59 82.4 °F 64.6 °F 30 in SW 3.8 mph 3.8 mph 55 % 0 in
11:05 82.4 °F 64 °F 30 in West 4.6 mph 4.6 mph 54 % 0 in
11:10 83.1 °F 63.7 °F 30 in SSW 4.6 mph 4.6 mph 52 % 0 in
11:15 83.7 °F 63.7 °F 30 in SSW 6.9 mph 6.9 mph 51 % 0 in
11:20 83.7 °F 63.7 °F 30 in SSE 5.8 mph 5.8 mph 51 % 0 in
11:25 83.8 °F 63.1 °F 30 in SW 11.5 mph 11.5 mph 50 % 0 in
11:30 84.7 °F 63.5 °F 30 in SSW 2.3 mph 3.8 mph 49 % 0 in
11:35 84.6 °F 63.3 °F 30 in West 8.1 mph 8.1 mph 49 % 0 in
11:40 84.4 °F 63.1 °F 30 in WSW 2 mph 6 mph 49 % 0 in
11:45 85.5 °F 64 °F 30 in WSW 2 mph 6 mph 49 % 0 in
11:50 85.3 °F 64 °F 30 in WSW 5.9 mph 5.9 mph 49 % 0 in
11:55 85.5 °F 64 °F 30 in WSW 5.9 mph 5.9 mph 49 % 0 in
12:00 85.8 °F 63.9 °F 30 in SSW 5.8 mph 5.8 mph 48 % 0 in
12:05 86.4 °F 64.4 °F 30 in WSW 6.9 mph 6.9 mph 48 % 0 in
12:10 86 °F 64 °F 30 in WSW 5.8 mph 5.8 mph 48 % 0 in
12:15 86.5 °F 64.6 °F 30 in SW 6.9 mph 6.9 mph 48 % 0 in
12:20 86.5 °F 63.9 °F 30 in SW 5 mph 6 mph 47 % 0 in
12:25 87.3 °F 64.6 °F 30 in SW 6 mph 8 mph 47 % 0 in
12:30 87.1 °F 63.7 °F 30 in SW 3 mph 8 mph 46 % 0 in
12:35 88.3 °F 64.9 °F 30 in ENE 3.5 mph 3.5 mph 46 % 0 in
12:40 89.1 °F 64.9 °F 30 in East 4.6 mph 4.6 mph 45 % 0 in
12:45 89.1 °F 64.2 °F 30 in South 5.8 mph 5.8 mph 44 % 0 in
12:50 89.8 °F 64.2 °F 30 in WSW 2.9 mph 3.3 mph 43 % 0 in
12:55 90.5 °F 64.9 °F 30 in SSW 8.1 mph 8.1 mph 43 % 0 in
13:00 89.2 °F 63.9 °F 30 in SW 3.5 mph 3.5 mph 43 % 0 in
13:05 89.2 °F 63.1 °F 30 in SW 5.8 mph 5.8 mph 42 % 0 in
13:10 89.1 °F 63 °F 30 in SW 4.6 mph 4.7 mph 42 % 0 in
13:15 88.7 °F 62.8 °F 30 in SSE 2.3 mph 3.8 mph 42 % 0 in
13:20 89.4 °F 62.6 °F 30 in West 8.1 mph 8.1 mph 41 % 0 in
13:21 89.8 °F 63 °F 30 in West 5.8 mph 5.8 mph 41 % 0 in
13:26 90.9 °F 63.1 °F 30 in SSW 5.6 mph 5.6 mph 40 % 0 in
13:31 91 °F 62.6 °F 30 in SW 8.1 mph 8.1 mph 39 % 0 in
13:37 90.3 °F 62.1 °F 30 in SW 8.5 mph 8.5 mph 39 % 0 in
13:42 91 °F 62.6 °F 30 in SW 5.4 mph 5.4 mph 39 % 0 in
13:47 91.9 °F 61.2 °F 30 in SSE 6.9 mph 6.9 mph 36 % 0 in
13:52 91.8 °F 61.9 °F 30 in SW 6.9 mph 6.9 mph 37 % 0 in
13:57 92.3 °F 61.5 °F 30 in South 3.5 mph 3.6 mph 36 % 0 in
14:02 92.3 °F 62.2 °F 30 in SE 5.8 mph 5.8 mph 37 % 0 in
14:07 91.9 °F 61.2 °F 30 in SW 7.8 mph 7.8 mph 36 % 0 in
14:12 91.4 °F 61.5 °F 30 in SW 8.1 mph 8.1 mph 37 % 0 in
14:17 91.9 °F 61.2 °F 30 in WSW 7.8 mph 7.8 mph 36 % 0 in
14:22 92.5 °F 61.5 °F 30 in SW 4.6 mph 4.6 mph 36 % 0 in
14:27 92.5 °F 60.8 °F 30 in SSW 3.3 mph 3.3 mph 35 % 0 in
14:32 92.5 °F 61.5 °F 30 in SW 9.2 mph 9.2 mph 36 % 0 in
14:37 92.8 °F 62.1 °F 29.9 in SW 4.6 mph 4.6 mph 36 % 0 in
14:42 92.8 °F 62.1 °F 29.9 in West 4 mph 4 mph 36 % 0 in
14:48 91.8 °F 60.3 °F 29.9 in WNW 6.2 mph 6.2 mph 35 % 0 in
14:53 90.9 °F 60.3 °F 29.9 in SSW 10.4 mph 10.4 mph 36 % 0 in
14:58 91.2 °F 60.4 °F 29.9 in SE 8.1 mph 8.1 mph 36 % 0 in
15:03 91.8 °F 60.3 °F 29.9 in SW 8.5 mph 8.5 mph 35 % 0 in
15:08 91.4 °F 59.2 °F 29.9 in SSW 5.8 mph 5.8 mph 34 % 0 in
15:14 91.8 °F 60.3 °F 29.9 in SW 5.8 mph 5.8 mph 35 % 0 in
15:19 92.1 °F 60.4 °F 29.9 in SW 5.8 mph 5.8 mph 35 % 0 in
15:24 92.5 °F 60.1 °F 29.9 in SSW 5.8 mph 5.8 mph 34 % 0 in
15:29 92.3 °F 59.9 °F 29.9 in SW 4.6 mph 4.6 mph 34 % 0 in
15:34 91.8 °F 58.6 °F 29.9 in WSW 9.2 mph 9.2 mph 33 % 0 in
15:39 91.4 °F 58.3 °F 29.9 in SW 9.2 mph 9.2 mph 33 % 0 in
15:44 92.5 °F 59.2 °F 29.9 in South 4.6 mph 4.6 mph 33 % 0 in
15:49 92.8 °F 59.5 °F 29.9 in WSW 10.2 mph 10.2 mph 33 % 0 in
15:54 92.7 °F 58.5 °F 29.9 in NNE 4.6 mph 4.6 mph 32 % 0 in
15:59 92.7 °F 58.5 °F 29.9 in SW 8.1 mph 8.1 mph 32 % 0 in
16:05 91.9 °F 57 °F 29.9 in SW 9.7 mph 9.7 mph 31 % 0 in
16:10 92.1 °F 57 °F 29.9 in SSW 6.9 mph 6.9 mph 31 % 0 in
16:15 92.8 °F 57.7 °F 29.9 in SW 10.4 mph 10.4 mph 31 % 0 in
16:20 92.8 °F 57.7 °F 29.9 in SW 5.8 mph 5.8 mph 31 % 0 in
16:25 92.7 °F 57.6 °F 29.9 in South 5.4 mph 5.4 mph 31 % 0 in
16:30 92.1 °F 56.1 °F 29.9 in SW 9.2 mph 9.2 mph 30 % 0 in
16:35 91.8 °F 55 °F 29.9 in South 6.9 mph 6.9 mph 29 % 0 in
16:40 92.1 °F 55.2 °F 30 in SW 8.1 mph 8.1 mph 29 % 0 in
16:45 91.9 °F 55 °F 30 in SW 9.2 mph 9.2 mph 29 % 0 in
16:50 92.1 °F 55.2 °F 30 in SW 4.6 mph 4.6 mph 29 % 0 in
16:55 91.9 °F 55 °F 29.9 in SW 6 mph 9 mph 29 % 0 in
17:00 92.5 °F 56.5 °F 29.9 in SW 6.4 mph 6.4 mph 30 % 0 in
17:05 91.4 °F 54.7 °F 29.9 in SW 6 mph 13 mph 29 % 0 in
17:10 91.6 °F 54.9 °F 29.9 in SW 5 mph 9 mph 29 % 0 in
17:15 91.4 °F 54.7 °F 29.9 in SW 3 mph 10 mph 29 % 0 in
17:20 92.1 °F 55.2 °F 29.9 in SW 5 mph 10 mph 29 % 0 in
17:25 91.8 °F 54 °F 29.9 in SSW 2 mph 7 mph 28 % 0 in
17:30 91.8 °F 54 °F 29.9 in SSW 3 mph 7 mph 28 % 0 in
17:35 91.9 °F 54.1 °F 29.9 in WSW 8.1 mph 8.1 mph 28 % 0 in
17:40 92.3 °F 54.5 °F 29.9 in SW 9.7 mph 9.7 mph 28 % 0 in
17:45 91.4 °F 53.8 °F 29.9 in SSW 8.1 mph 8.1 mph 28 % 0 in
17:50 91.8 °F 54 °F 29.9 in West 6.9 mph 6.9 mph 28 % 0 in
17:55 91 °F 53.4 °F 29.9 in SSW 8.1 mph 8.1 mph 28 % 0 in
18:00 90.1 °F 52.5 °F 29.9 in West 6.9 mph 6.9 mph 28 % 0 in
18:05 89.8 °F 52.3 °F 29.9 in SSW 8.1 mph 8.1 mph 28 % 0 in
18:10 90 °F 52.5 °F 29.9 in SSW 8.1 mph 8.1 mph 28 % 0 in
18:15 89.8 °F 52.3 °F 29.9 in SW 5.8 mph 5.8 mph 28 % 0 in
18:20 89.4 °F 53.1 °F 29.9 in South 10 mph 10 mph 29 % 0 in
18:25 88.9 °F 52.5 °F 29.9 in SSW 9.2 mph 9.2 mph 29 % 0 in
18:30 88.7 °F 52.3 °F 29.9 in SW 9.2 mph 9.2 mph 29 % 0 in
18:35 88.9 °F 52.5 °F 29.9 in SW 9.2 mph 9.2 mph 29 % 0 in
18:40 88.2 °F 52 °F 29.9 in SW 5.8 mph 5.8 mph 29 % 0 in
18:45 88.5 °F 52.2 °F 29.9 in WSW 6.9 mph 6.9 mph 29 % 0 in
18:51 88 °F 51.6 °F 29.9 in WSW 8.1 mph 8.1 mph 29 % 0 in
18:56 87.6 °F 52.3 °F 29.9 in SW 5.8 mph 5.8 mph 30 % 0 in
19:01 87.4 °F 53.1 °F 29.9 in SSW 8.1 mph 8.1 mph 31 % 0 in
19:06 87.1 °F 52.9 °F 29.9 in South 4.6 mph 4.6 mph 31 % 0 in
19:11 86.9 °F 53.4 °F 29.9 in West 4.7 mph 4.7 mph 32 % 0 in
19:15 74.7 °F 62.4 °F 30 in SW 2 mph 3 mph 66 % 0 in
19:16 86.4 °F 54 °F 29.9 in SW 8.1 mph 8.1 mph 33 % 0 in
19:17 86.4 °F 54 °F 29.9 in SW 6.9 mph 6.9 mph 33 % 0 in
19:23 86.4 °F 53.1 °F 29.9 in SW 5.8 mph 5.8 mph 32 % 0 in
19:25 74.5 °F 62.4 °F 30 in SW 2 mph 3 mph 66 % 0 in
19:28 85.8 °F 52.5 °F 29.9 in WSW 8.1 mph 8.1 mph 32 % 0 in
19:33 85.3 °F 52.9 °F 29.9 in SW 8.5 mph 8.5 mph 33 % 0 in
19:35 74.3 °F 62.6 °F 30 in SW 3 mph 3 mph 67 % 0 in
19:38 84.7 °F 51.6 °F 29.9 in WSW 10.4 mph 10.4 mph 32 % 0 in
19:43 84.7 °F 51.6 °F 29.9 in SW 3.5 mph 3.5 mph 32 % 0 in
19:45 74.3 °F 63.9 °F 30 in Calm   1 mph 70 % 0 in
19:48 84.6 °F 51.4 °F 29.9 in SW 5.8 mph 5.8 mph 32 % 0 in
19:53 84.4 °F 52.2 °F 29.9 in SSW 6 mph 6 mph 33 % 0 in
19:55 74.3 °F 64.2 °F 29.9 in NE 2 mph 4 mph 71 % 0 in
19:58 84 °F 53.4 °F 29.9 in West 4.6 mph 4.6 mph 35 % 0 in
20:03 83.7 °F 53.1 °F 29.9 in SW 6.9 mph 6.9 mph 35 % 0 in
20:05 74.3 °F 64.8 °F 29.9 in NE 3 mph 6 mph 72 % 0 in
20:08 83.1 °F 53.4 °F 29.9 in South 5.8 mph 5.8 mph 36 % 0 in
20:14 82.9 °F 53.2 °F 29.9 in WSW 3.5 mph 3.5 mph 36 % 0 in
20:19 82.8 °F 53.1 °F 29.9 in SW 5.8 mph 5.8 mph 36 % 0 in
20:24 82.4 °F 52.9 °F 29.9 in SW 4.6 mph 4.6 mph 36 % 0 in
20:25 74.1 °F 64 °F 29.9 in NE 2 mph 2 mph 71 % 0 in
20:29 81.7 °F 52.9 °F 29.9 in SSW 3.5 mph 3.5 mph 37 % 0 in
20:34 81.5 °F 52.7 °F 29.9 in WSW 3.8 mph 3.8 mph 37 % 0 in
20:35 74.1 °F 63.7 °F 29.9 in WSW 2 mph 3 mph 70 % 0 in
20:39 81.1 °F 53.1 °F 29.9 in SSW 3.5 mph 3.5 mph 38 % 0 in
20:44 80.8 °F 52.9 °F 29.9 in WSW 2.3 mph 2.3 mph 38 % 0 in
20:45 74.1 °F 64.6 °F 29.9 in Calm   2 mph 72 % 0 in
20:49 80.6 °F 53.4 °F 29.9 in SW 2.3 mph 2.3 mph 39 % 0 in
20:54 80.4 °F 54 °F 29.9 in SSW 3.5 mph 3.5 mph 40 % 0 in
20:59 79.9 °F 54.1 °F 29.9 in SSE 4.7 mph 4.7 mph 41 % 0 in
21:05 79.7 °F 54.7 °F 29.9 in SW 2 mph 6 mph 42 % 0 in
21:10 79.3 °F 55.6 °F 30 in WSW 2 mph 6 mph 44 % 0 in
21:15 79 °F 55.8 °F 30 in SW 2 mph 6 mph 45 % 0 in
21:20 78.6 °F 56.1 °F 30 in SW 3 mph 6 mph 46 % 0 in
21:25 78.4 °F 56.5 °F 30 in SW 3 mph 5 mph 47 % 0 in
21:30 78.3 °F 57 °F 30 in SW 3 mph 6 mph 48 % 0 in
21:35 78.1 °F 57.9 °F 30 in SW 2 mph 5 mph 50 % 0 in
21:40 77.9 °F 57.7 °F 30 in SW 2 mph 5 mph 50 % 0 in
21:45 77.7 °F 58.3 °F 30 in SW 3 mph 5 mph 51 % 0 in
21:50 77.5 °F 58.5 °F 30 in South 1.2 mph   52 % 0 in
21:55 77.5 °F 59.2 °F 30 in SSE 1.2 mph   53 % 0 in
22:00 77.4 °F 58.8 °F 30 in WSW 2.3 mph 2.3 mph 53 % 0 in
22:05 77.4 °F 58.8 °F 30 in WSW 1.6 mph   53 % 0 in
22:10 77.2 °F 58.6 °F 30 in WSW 2.3 mph 2.3 mph 53 % 0 in
22:15 77.2 °F 59.2 °F 30 in WSW 1 mph 1 mph 54 % 0 in
22:20 77 °F 59.2 °F 30 in Calm   2 mph 54 % 0 in
22:25 77 °F 59.2 °F 30 in SW 1 mph 3 mph 54 % 0 in
22:30 76.8 °F 59.4 °F 30 in SW 2 mph 3 mph 55 % 0 in
22:35 76.6 °F 59.7 °F 30 in SW 3.5 mph 3.5 mph 56 % 0 in
22:40 76.5 °F 59.5 °F 30 in Calm   2 mph 56 % 0 in
22:45 76.3 °F 59.9 °F 30 in Calm   1 mph 57 % 0 in
22:50 76.1 °F 59.7 °F 30 in Calm   1 mph 57 % 0 in
22:55 76.1 °F 59.7 °F 30 in SSW 1 mph 2 mph 57 % 0 in
23:00 76.1 °F 59.7 °F 30 in Calm   2 mph 57 % 0 in
23:05 75.9 °F 59.5 °F 30 in WSW 1 mph 2 mph 57 % 0 in
23:10 75.7 °F 59.4 °F 30 in SW 2.3 mph 2.3 mph 57 % 0 in
23:15 75.6 °F 59.7 °F 30 in SW 1 mph 2 mph 58 % 0 in
23:20 75.6 °F 59.7 °F 30 in SW 2 mph 3 mph 58 % 0 in
23:25 75.4 °F 59.5 °F 30 in SW 2 mph 3 mph 58 % 0 in
23:30 75 °F 60.3 °F 30 in SW 1 mph 3 mph 60 % 0 in
23:35 74.8 °F 60.4 °F 30 in SW 2 mph 3 mph 61 % 0 in
23:40 74.8 °F 60.4 °F 30 in SW 2 mph 4 mph 61 % 0 in
23:45 74.7 °F 60.8 °F 30 in SW 2 mph 3 mph 62 % 0 in
23:50 74.7 °F 60.8 °F 30 in SW 2 mph 4 mph 62 % 0 in
23:55 74.7 °F 61.2 °F 30 in SW 2 mph 5 mph 63 % 0 in
Meteo Sesrovires
Elogis d' Weather Underground - 3.5 mb

Guio original per  Jim McMurry - jmcmurry@mwt.net Adaptat per a la plantilla per  Wim van der Kuil - Leuven-Template.eu

Trobareu la nostra informacio del temps tambe a:

Weather Underground

AWEKAS